Horace, Nebraska
Current Conditions -  °F | °C
As of 3:53 PM on Saturday 25 Oct 2014 (Local Time) from KODX Reporting Station
Clear Clear  
Wind Chill: 71°   Ceiling: Unl
Heat Index: 71°   Visibility: 10mi
Dew Point: 39°   Wind: 10mph
Humidity: 31%   Direction: 140°SE
Pressure: 30.05"   Gusts: NA
Location:  41.5399°N, 98.6677°W
Report Text: KODX 252053Z AUTO 14009KT 10SM CLR 22/04 A3005 RMK AO2 SLP178 T02170039 56024
Loading
Personal Weather Stations






























Interactive Weather Map New forecast layout! Learn more

10-Day Weather Forecast

Advertisements
Track Severe Weather on mobile